KDTW/DTW METAR and TAF weather

Enter ICAO airport designator
Station Type Date Time Source
KDTW METAR 2020/09/27 14:53 UTC NOAA

KDTW 271453Z 22011KT 10SM FEW015 FEW180 SCT250 21/16 A2977 RMK AO2 SLP079 T02060156 58002


Station Type Date Time Source
KDTW Decoded METAR 2020/09/27 14:53 UTC NOAA

DETROIT METROPOLITAN, MI, United States (KDTW) 42-14N 83-20W 195M
Sep 27, 2020 - 10:53 AM EDT / 2020.09.27 1453 UTC
Wind: from the SW (220 degrees) at 13 MPH (11 KT):0
Visibility: 10 mile(s):0
Sky conditions: partly cloudy
Temperature: 69.1 F (20.6 C)
Dew Point: 60.1 F (15.6 C)
Relative Humidity: 73%
Pressure (altimeter): 29.77 in. Hg (1008 hPa)
Pressure tendency: 0.01 inches (0.2 hPa) lower than three hours ago
ob: KDTW 271453Z 22011KT 10SM FEW015 FEW180 SCT250 21/16 A2977 RMK AO2 SLP079 T02060156 58002
cycle: 15

Station Type Date Time Source
KDTW TAF 2020/09/27 14:51 UTC NOAA

TAF
AMD KDTW 271349Z 2714/2818 22012G22KT P6SM SCT020 SCT250
FM271700 24013G20KT P6SM BKN040
FM272100 23011KT P6SM BKN045
FM280600 14006KT P6SM BKN030 PROB30 2809/2812 4SM -SHRA BR BKN020

Example: see airport list